Time;durP1;ratioP1;P1;durP2;ratioP2;P2;SDS_P1;SDS_P2;PMS_P1;PMS_P2;Temp;Humidity;BMP_temperature;BMP_pressure;BME280_temperature;BME280_humidity;BME280_pressure;Samples;Min_cycle;Max_cycle;Signal;HPM_P1;HPM_P2
2022/10/11 04:19:31;;;;;;;6.95;1.58;;;14.70;68.00;;;;;;5658112;24;20055;-74
2022/10/11 04:21:57;;;;;;;7.28;1.00;;;14.70;68.10;;;;;;4826841;29;20058;-75
2022/10/11 04:24:22;;;;;;;6.93;1.30;;;14.70;68.50;;;;;;4811744;29;20083;-74
2022/10/11 04:26:48;;;;;;;10.30;1.25;;;14.70;68.60;;;;;;4827186;29;20137;-75
2022/10/11 04:29:14;;;;;;;6.00;1.17;;;14.70;68.70;;;;;;4811987;29;20078;-77
2022/10/11 04:31:40;;;;;;;7.90;1.75;;;14.70;68.50;;;;;;4820444;29;20051;-77
2022/10/11 04:34:05;;;;;;;10.82;2.00;;;14.70;68.50;;;;;;4808481;29;20066;-76
2022/10/11 04:36:32;;;;;;;4.22;1.23;;;14.70;68.50;;;;;;4809493;29;20047;-77
2022/10/11 04:39:00;;;;;;;4.43;1.25;;;14.60;68.50;;;;;;4799752;29;20093;-76
2022/10/11 04:41:26;;;;;;;12.30;1.52;;;14.70;68.50;;;;;;4809836;29;20118;-77
2022/10/11 04:43:52;;;;;;;7.45;1.73;;;14.60;68.50;;;;;;4836238;29;20418;-76
2022/10/11 04:46:18;;;;;;;8.10;1.55;;;14.70;68.60;;;;;;4845150;29;20062;-74
2022/10/11 04:48:43;;;;;;;6.40;1.92;;;14.70;68.40;;;;;;4829986;29;20058;-72
2022/10/11 04:51:09;;;;;;;7.28;1.38;;;14.60;68.40;;;;;;4827385;29;20434;-72
2022/10/11 04:53:35;;;;;;;12.88;2.28;;;14.70;68.50;;;;;;4826451;29;20122;-73
2022/10/11 04:56:03;;;;;;;12.52;1.45;;;14.60;68.70;;;;;;4827059;29;20110;-69
2022/10/11 04:58:31;;;;;;;8.10;1.48;;;14.60;68.90;;;;;;4827314;29;20058;-74
2022/10/11 05:00:57;;;;;;;6.78;1.48;;;14.60;69.20;;;;;;4823128;29;20053;-73
2022/10/11 05:03:23;;;;;;;8.35;1.63;;;14.60;69.40;;;;;;4814678;29;20062;-71
2022/10/11 05:05:50;;;;;;;8.90;1.63;;;14.60;69.50;;;;;;4826515;29;20061;-75
2022/10/11 05:08:16;;;;;;;8.50;1.67;;;14.70;69.70;;;;;;4823853;29;20054;-74
2022/10/11 05:10:41;;;;;;;9.27;2.00;;;14.70;69.70;;;;;;4809390;29;20051;-75
2022/10/11 05:13:07;;;;;;;8.73;1.80;;;14.70;69.70;;;;;;4826949;29;20423;-76
2022/10/11 05:15:33;;;;;;;7.88;1.40;;;14.70;69.90;;;;;;4826577;29;20482;-76
2022/10/11 05:17:59;;;;;;;9.55;2.38;;;14.80;69.80;;;;;;4815897;29;20050;-76
2022/10/11 05:20:25;;;;;;;8.38;1.63;;;14.80;69.80;;;;;;4808096;29;20058;-75
2022/10/11 05:22:51;;;;;;;9.40;1.58;;;14.80;69.80;;;;;;4825025;29;20054;-76
2022/10/11 05:25:17;;;;;;;6.65;1.48;;;14.80;69.80;;;;;;4814526;29;20412;-76
2022/10/11 05:27:42;;;;;;;9.80;1.73;;;14.80;69.70;;;;;;4836282;29;20054;-74
2022/10/11 05:30:09;;;;;;;14.80;2.83;;;14.90;70.20;;;;;;4844915;29;20050;-76
2022/10/11 05:32:34;;;;;;;10.00;1.98;;;14.80;70.10;;;;;;4828553;29;20126;-77
2022/10/11 05:35:00;;;;;;;11.63;1.80;;;14.90;70.20;;;;;;4818317;29;20444;-75
2022/10/11 05:37:26;;;;;;;11.75;1.90;;;14.90;70.20;;;;;;4808317;29;20061;-72
2022/10/11 05:39:52;;;;;;;12.38;2.28;;;14.90;70.10;;;;;;4793214;29;20371;-76
2022/10/11 05:42:17;;;;;;;7.53;1.83;;;14.80;70.10;;;;;;4814840;29;20100;-72
2022/10/11 05:44:43;;;;;;;10.98;1.48;;;14.80;70.30;;;;;;4826341;29;20054;-71
2022/10/11 05:47:09;;;;;;;9.85;1.90;;;14.70;70.30;;;;;;4824659;29;20057;-73
2022/10/11 05:49:34;;;;;;;12.60;2.45;;;14.60;70.60;;;;;;4809385;29;20081;-74
2022/10/11 05:52:00;;;;;;;12.63;1.70;;;14.60;70.40;;;;;;4815894;29;20066;-76
2022/10/11 05:54:29;;;;;;;9.60;2.10;;;14.60;70.90;;;;;;4807237;29;20058;-76
2022/10/11 05:56:55;;;;;;;10.55;2.03;;;14.70;70.80;;;;;;4808039;29;20058;-76
2022/10/11 05:59:21;;;;;;;10.15;1.83;;;14.80;70.00;;;;;;4807798;29;20209;-75
2022/10/11 06:01:47;;;;;;;7.38;1.50;;;15.00;69.20;;;;;;4810256;29;20057;-76
2022/10/11 06:04:15;;;;;;;9.93;2.28;;;15.00;68.40;;;;;;4807412;29;20133;-75
2022/10/11 06:06:41;;;;;;;13.00;1.70;;;15.10;67.90;;;;;;4816787;29;20065;-82
2022/10/11 06:09:06;;;;;;;12.80;2.78;;;15.10;68.40;;;;;;4817232;29;20058;-79
2022/10/11 06:11:32;;;;;;;18.42;2.97;;;15.10;67.90;;;;;;4792677;29;20145;-80
2022/10/11 06:13:58;;;;;;;13.68;2.47;;;15.20;68.50;;;;;;4809722;29;20118;-79
2022/10/11 06:16:25;;;;;;;15.52;2.95;;;15.20;68.70;;;;;;4819604;29;20054;-81
2022/10/11 06:18:55;;;;;;;16.13;2.25;;;15.30;69.00;;;;;;4821841;29;20059;-83
2022/10/11 06:21:22;;;;;;;15.68;2.70;;;15.40;69.20;;;;;;4790772;29;20385;-82
2022/10/11 06:23:49;;;;;;;15.73;2.83;;;15.50;69.30;;;;;;4824656;29;20135;-83
2022/10/11 06:26:17;;;;;;;17.70;2.10;;;15.60;69.60;;;;;;4802973;29;20062;-83
2022/10/11 06:28:43;;;;;;;18.55;2.50;;;15.60;69.80;;;;;;4791390;29;20050;-86
2022/10/11 06:31:10;;;;;;;12.82;2.53;;;15.60;70.00;;;;;;4788944;29;20050;-81
2022/10/11 06:33:36;;;;;;;13.10;1.95;;;15.70;70.20;;;;;;4808221;29;20390;-81
2022/10/11 06:36:05;;;;;;;17.45;2.30;;;15.70;70.30;;;;;;4803110;29;20046;-80
2022/10/11 06:38:31;;;;;;;13.70;2.58;;;15.70;70.50;;;;;;4798061;29;20051;-83
2022/10/11 06:40:56;;;;;;;16.73;2.72;;;15.70;70.60;;;;;;4809125;29;20050;-80
2022/10/11 06:43:22;;;;;;;20.50;2.30;;;15.80;70.90;;;;;;4795411;29;20050;-80
2022/10/11 06:45:48;;;;;;;19.08;2.30;;;15.80;71.00;;;;;;4791347;29;20055;-80
2022/10/11 06:48:14;;;;;;;13.68;2.20;;;15.80;71.00;;;;;;4800874;29;20411;-80
2022/10/11 06:50:40;;;;;;;15.55;2.22;;;15.80;71.10;;;;;;4796762;29;20445;-77
2022/10/11 06:53:06;;;;;;;20.35;2.83;;;15.80;71.20;;;;;;4808931;29;20066;-78
2022/10/11 06:55:32;;;;;;;22.35;2.97;;;15.90;71.30;;;;;;4810850;29;20047;-80
2022/10/11 06:57:58;;;;;;;33.40;4.03;;;15.80;71.20;;;;;;4828396;29;20499;-79
2022/10/11 07:00:23;;;;;;;13.30;2.30;;;15.90;71.20;;;;;;4826667;29;20136;-75
2022/10/11 07:02:49;;;;;;;16.60;2.72;;;15.80;69.80;;;;;;4816191;29;20064;-75
2022/10/11 07:05:18;;;;;;;23.35;2.85;;;15.70;70.00;;;;;;4821430;29;20138;-76
2022/10/11 07:07:44;;;;;;;17.83;2.92;;;15.70;70.20;;;;;;4839863;29;20081;-75
2022/10/11 07:10:09;;;;;;;23.85;3.75;;;15.70;70.30;;;;;;4830943;29;20153;-73
2022/10/11 07:12:35;;;;;;;16.83;2.60;;;15.70;70.40;;;;;;4828272;29;20054;-75
2022/10/11 07:15:01;;;;;;;15.85;2.88;;;15.70;70.20;;;;;;4827897;29;20538;-74
2022/10/11 07:17:26;;;;;;;11.98;2.85;;;15.70;70.00;;;;;;4828372;29;20054;-75
2022/10/11 07:19:52;;;;;;;11.18;1.98;;;15.70;69.80;;;;;;4825379;29;20058;-78
2022/10/11 07:22:18;;;;;;;13.98;2.88;;;15.70;69.50;;;;;;4812222;29;20477;-79
2022/10/11 07:24:43;;;;;;;20.88;2.65;;;15.70;69.40;;;;;;4809171;29;20091;-79
2022/10/11 07:27:09;;;;;;;17.85;3.15;;;15.60;69.40;;;;;;4810202;29;20123;-78
2022/10/11 07:29:35;;;;;;;12.88;2.50;;;15.60;69.50;;;;;;4809992;29;20086;-79
2022/10/11 07:32:01;;;;;;;15.02;2.40;;;15.60;69.60;;;;;;4819214;29;20125;-79
2022/10/11 07:34:26;;;;;;;10.90;2.22;;;15.50;69.60;;;;;;4794990;29;20069;-79
2022/10/11 07:36:52;;;;;;;7.95;2.00;;;15.50;69.70;;;;;;4810088;29;20042;-79
2022/10/11 07:39:18;;;;;;;9.07;1.75;;;15.60;69.50;;;;;;4810272;29;20057;-76
2022/10/11 07:41:43;;;;;;;6.63;2.03;;;15.70;68.20;;;;;;4810697;29;20080;-76
2022/10/11 07:44:09;;;;;;;8.18;2.03;;;15.60;67.90;;;;;;4821846;29;20077;-74
2022/10/11 07:46:35;;;;;;;7.03;2.15;;;15.60;68.30;;;;;;4809890;29;20046;-77
2022/10/11 07:49:01;;;;;;;11.75;2.20;;;15.60;68.60;;;;;;4794321;29;20065;-75
2022/10/11 07:51:26;;;;;;;13.05;2.58;;;15.60;68.80;;;;;;4810162;29;20047;-77
2022/10/11 07:53:56;;;;;;;12.40;2.33;;;15.60;68.80;;;;;;4810123;29;20124;-74
2022/10/11 07:56:24;;;;;;;13.13;2.13;;;15.60;68.90;;;;;;4827771;29;20095;-73
2022/10/11 07:58:52;;;;;;;19.73;2.55;;;15.60;69.00;;;;;;4827769;29;20050;-74
2022/10/11 08:01:18;;;;;;;8.02;1.77;;;15.60;69.00;;;;;;4824047;29;20057;-78
2022/10/11 08:03:44;;;;;;;8.75;2.28;;;15.60;69.00;;;;;;4809682;29;20053;-77
2022/10/11 08:06:12;;;;;;;12.45;2.00;;;15.60;69.00;;;;;;4809503;29;20051;-76
2022/10/11 08:08:38;;;;;;;10.32;2.13;;;15.60;68.90;;;;;;4809886;29;20066;-71
2022/10/11 08:11:04;;;;;;;8.95;2.33;;;15.60;68.90;;;;;;4809478;29;20047;-83
2022/10/11 08:13:30;;;;;;;11.93;2.75;;;15.60;68.90;;;;;;4817042;29;20114;-78
2022/10/11 08:15:56;;;;;;;10.07;1.80;;;15.60;69.20;;;;;;4827364;29;20363;-81
2022/10/11 08:18:23;;;;;;;13.20;2.47;;;15.60;69.40;;;;;;4828283;29;20061;-77
2022/10/11 08:20:48;;;;;;;14.40;2.25;;;15.50;69.60;;;;;;4837312;29;20070;-77
2022/10/11 08:23:18;;;;;;;12.68;1.75;;;15.50;69.90;;;;;;4829050;29;20054;-81
2022/10/11 08:25:46;;;;;;;11.95;2.15;;;15.50;70.20;;;;;;4827758;29;20362;-76
2022/10/11 08:28:15;;;;;;;9.85;2.05;;;15.60;70.30;;;;;;4827399;29;20056;-78
2022/10/11 08:30:52;;;;;;;9.27;2.40;;;15.50;70.40;;;;;;4811322;29;20366;-79
2022/10/11 08:33:19;;;;;;;14.60;3.15;;;15.50;72.30;;;;;;4811435;29;20088;-74
2022/10/11 08:35:47;;;;;;;13.25;3.10;;;15.60;71.40;;;;;;4809356;29;20127;-77
2022/10/11 08:38:16;;;;;;;11.20;2.30;;;15.60;71.30;;;;;;4778540;29;20058;-85
2022/10/11 08:40:54;;;;;;;11.90;2.38;;;15.60;71.30;;;;;;4778222;29;20145;-83
2022/10/11 08:43:43;;;;;;;14.18;2.05;;;15.60;71.20;;;;;;4793233;29;20093;-81
2022/10/11 08:46:10;;;;;;;11.68;1.70;;;15.60;71.00;;;;;;4811062;29;20042;-83
2022/10/11 08:48:42;;;;;;;12.80;2.08;;;15.60;71.20;;;;;;4827447;29;20349;-82
2022/10/11 08:51:31;;;;;;;9.85;2.03;;;15.60;71.30;;;;;;4810957;29;20046;-80
2022/10/11 08:54:02;;;;;;;16.80;2.17;;;15.60;71.10;;;;;;4792673;29;20043;-83
2022/10/11 08:56:29;;;;;;;10.23;1.95;;;15.60;71.40;;;;;;4792368;29;20151;-82
2022/10/11 08:59:14;;;;;;;9.70;1.70;;;15.60;71.40;;;;;;4792638;29;20047;-82
2022/10/11 09:01:46;;;;;;;7.28;2.03;;;15.60;71.50;;;;;;4779481;29;20057;-80
2022/10/11 09:04:14;;;;;;;6.28;1.63;;;15.60;71.50;;;;;;4793054;29;20138;-80
2022/10/11 09:07:17;;;;;;;8.80;1.85;;;15.60;72.10;;;;;;4777832;29;20077;-83
2022/10/11 09:10:03;;;;;;;6.07;1.52;;;15.60;71.40;;;;;;4777521;29;20439;-81
2022/10/11 09:12:54;;;;;;;10.98;2.05;;;15.60;71.50;;;;;;4799357;29;20054;-83
2022/10/11 09:15:58;;;;;;;7.60;1.77;;;15.60;71.40;;;;;;4810441;29;20045;-84
2022/10/11 09:18:51;;;;;;;10.52;1.25;;;15.60;71.60;;;;;;4800166;29;20122;-79
2022/10/11 09:21:29;;;;;;;5.28;1.42;;;15.60;71.50;;;;;;4826283;29;20122;-79
2022/10/11 09:24:27;;;;;;;13.13;2.03;;;15.60;71.70;;;;;;4824823;29;20062;-78
2022/10/11 09:27:12;;;;;;;15.15;2.15;;;15.60;71.70;;;;;;4826283;29;20046;-75
2022/10/11 09:30:01;;;;;;;11.95;1.98;;;15.70;71.90;;;;;;4826156;29;20053;-79
2022/10/11 09:32:51;;;;;;;9.80;1.85;;;15.80;70.90;;;;;;4820381;29;20073;-79
2022/10/11 09:35:20;;;;;;;9.18;1.60;;;15.90;70.10;;;;;;4807989;29;20141;-69
2022/10/11 09:37:59;;;;;;;13.70;2.00;;;15.90;70.10;;;;;;4808246;29;20063;-79
2022/10/11 09:40:49;;;;;;;19.50;1.73;;;15.80;70.30;;;;;;4806238;29;20061;-76
2022/10/11 09:43:14;;;;;;;12.45;2.05;;;15.80;70.50;;;;;;4825909;29;20050;-77
2022/10/11 09:45:43;;;;;;;15.20;2.33;;;15.90;70.20;;;;;;4826523;29;20482;-79
2022/10/11 09:48:18;;;;;;;14.15;1.95;;;16.00;69.40;;;;;;4826452;29;20347;-79
2022/10/11 09:50:44;;;;;;;9.18;1.67;;;16.00;69.40;;;;;;4827079;29;20125;-74
2022/10/11 09:53:10;;;;;;;7.32;1.38;;;16.10;69.10;;;;;;4826248;29;20104;-73
2022/10/11 09:55:52;;;;;;;17.67;2.13;;;16.10;67.80;;;;;;4812575;29;20498;-77
2022/10/11 09:58:27;;;;;;;11.07;2.00;;;16.10;67.40;;;;;;4808392;29;20395;-75
2022/10/11 10:01:43;;;;;;;5.25;1.20;;;16.10;67.60;;;;;;4808024;29;20051;-80
2022/10/11 10:08:09;;;;;;;7.93;1.10;;;16.10;68.20;;;;;;4787811;30;20169;-82
2022/10/11 10:14:29;;;;;;;8.05;1.63;;;16.20;66.80;;;;;;4769946;30;20135;-79
2022/10/11 10:17:04;;;;;;;27.58;3.13;;;16.10;66.80;;;;;;4769822;30;20079;-79
2022/10/11 10:19:45;;;;;;;12.48;1.80;;;16.10;66.70;;;;;;4807809;29;20042;-79
2022/10/11 10:22:22;;;;;;;12.52;1.73;;;16.20;66.90;;;;;;4811308;29;20054;-80
2022/10/11 10:24:50;;;;;;;14.38;1.83;;;16.10;67.50;;;;;;4810647;29;20068;-78
2022/10/11 10:27:21;;;;;;;10.88;1.30;;;16.10;68.00;;;;;;4826387;29;20140;-77
2022/10/11 10:30:14;;;;;;;12.43;1.48;;;16.00;68.10;;;;;;4829514;29;20132;-81
2022/10/11 10:33:07;;;;;;;8.23;1.58;;;16.00;68.20;;;;;;4806519;29;20046;-77
2022/10/11 10:36:13;;;;;;;11.60;2.03;;;16.00;68.50;;;;;;4808789;29;20058;-78
2022/10/11 10:38:49;;;;;;;22.27;2.45;;;16.00;69.00;;;;;;4791678;30;20059;-80
2022/10/11 10:41:19;;;;;;;14.60;2.15;;;16.00;69.30;;;;;;4775379;30;20051;-79
2022/10/11 10:43:56;;;;;;;15.50;2.28;;;16.00;69.20;;;;;;4768729;29;20055;-82
2022/10/11 10:47:02;;;;;;;15.57;1.95;;;15.90;69.20;;;;;;4794769;29;20548;-80
2022/10/11 10:49:56;;;;;;;19.35;2.35;;;15.90;69.30;;;;;;4795375;29;20436;-80
2022/10/11 10:52:27;;;;;;;15.32;2.05;;;16.00;69.50;;;;;;4783337;29;20137;-80
2022/10/11 10:55:11;;;;;;;14.15;1.83;;;16.00;69.60;;;;;;4812901;29;20077;-79
2022/10/11 10:57:43;;;;;;;;;;;16.00;69.60;;;;;;4798088;29;20462;-78
2022/10/11 11:00:14;;;;;;;14.07;1.65;;;15.90;69.30;;;;;;4828807;29;19920;-79
2022/10/11 11:02:55;;;;;;;15.00;1.85;;;15.90;69.70;;;;;;4812661;29;20123;-78
2022/10/11 11:05:49;;;;;;;7.97;2.13;;;16.00;69.80;;;;;;4797595;29;20049;-80
2022/10/11 11:08:26;;;;;;;12.65;2.30;;;16.00;69.70;;;;;;4827587;29;20515;-80
2022/10/11 11:11:34;;;;;;;12.20;1.65;;;16.00;69.90;;;;;;4812455;29;20050;-82
2022/10/11 11:14:26;;;;;;;12.82;1.83;;;16.00;69.80;;;;;;4797609;29;20354;-78
2022/10/11 11:17:24;;;;;;;13.90;1.80;;;16.00;69.60;;;;;;4812714;29;20068;-80
2022/10/11 11:20:19;;;;;;;8.18;1.27;;;16.00;69.50;;;;;;4812392;29;20346;-79
2022/10/11 11:22:58;;;;;;;10.65;1.50;;;16.00;69.60;;;;;;4797328;29;20055;-79
2022/10/11 11:25:39;;;;;;;10.05;1.42;;;16.00;69.70;;;;;;4812348;29;20073;-81
2022/10/11 11:28:36;;;;;;;8.50;1.17;;;16.00;69.60;;;;;;4827530;29;20109;-78
2022/10/11 11:31:12;;;;;;;9.95;1.20;;;16.00;69.70;;;;;;4812267;29;20500;-82
2022/10/11 11:34:15;;;;;;;8.48;1.25;;;16.00;69.80;;;;;;4811545;29;20477;-80
2022/10/11 11:36:53;;;;;;;9.32;1.80;;;16.00;69.70;;;;;;4797567;29;20359;-80
2022/10/11 11:39:24;;;;;;;8.20;1.60;;;16.10;69.80;;;;;;4797162;29;20050;-78
2022/10/11 11:42:08;;;;;;;10.43;2.22;;;16.00;69.80;;;;;;4811999;29;20061;-81
2022/10/11 11:44:55;;;;;;;9.65;1.45;;;16.10;69.70;;;;;;4809980;29;20111;-78
2022/10/11 11:47:26;;;;;;;10.18;1.40;;;16.00;69.60;;;;;;4810143;29;20370;-78
2022/10/11 11:50:00;;;;;;;7.82;1.38;;;16.00;69.70;;;;;;4794172;29;20059;-79
2022/10/11 11:52:32;;;;;;;6.57;1.17;;;16.00;69.80;;;;;;4796301;29;20340;-80
2022/10/11 11:55:33;;;;;;;5.30;0.95;;;16.00;69.90;;;;;;4827304;29;20038;-78
2022/10/11 11:58:04;;;;;;;6.85;1.42;;;16.00;70.10;;;;;;4778258;29;20125;-79
2022/10/11 12:01:20;;;;;;;6.18;1.17;;;16.00;70.20;;;;;;4797661;29;20109;-78
2022/10/11 12:03:50;;;;;;;8.27;1.20;;;16.00;70.10;;;;;;4793002;29;20085;-78
2022/10/11 12:06:21;;;;;;;6.93;1.05;;;16.00;70.30;;;;;;4811646;29;20046;-80
2022/10/11 12:09:00;;;;;;;6.35;1.42;;;16.00;70.30;;;;;;4827990;29;20081;-77
2022/10/11 12:11:37;;;;;;;7.00;1.30;;;15.90;70.30;;;;;;4825182;29;20050;-78
2022/10/11 12:14:32;;;;;;;6.72;1.08;;;16.00;70.20;;;;;;4796485;29;20222;-79
2022/10/11 12:17:20;;;;;;;10.00;1.50;;;16.00;70.10;;;;;;4811967;29;20434;-79
2022/10/11 12:20:11;;;;;;;3.30;0.85;;;16.00;70.20;;;;;;4796462;29;20050;-78
2022/10/11 12:22:52;;;;;;;7.22;1.40;;;16.00;70.10;;;;;;4811390;29;20133;-78
2022/10/11 12:25:21;;;;;;;4.32;0.90;;;16.00;70.10;;;;;;4810535;29;20051;-77
2022/10/11 12:27:50;;;;;;;5.85;1.27;;;16.00;70.00;;;;;;4811067;29;20446;-77
2022/10/11 12:30:52;;;;;;;10.88;1.38;;;16.00;70.10;;;;;;4811977;29;20050;-78
2022/10/11 12:33:44;;;;;;;6.88;1.55;;;16.00;70.30;;;;;;4804719;29;20062;-78
2022/10/11 12:36:32;;;;;;;13.85;1.40;;;16.00;70.50;;;;;;4811260;29;20058;-78
2022/10/11 12:39:17;;;;;;;10.90;1.23;;;16.00;70.50;;;;;;4809105;29;20055;-80
2022/10/11 12:41:48;;;;;;;8.05;1.38;;;16.00;70.50;;;;;;4793119;29;20046;-79
2022/10/11 12:44:17;;;;;;;10.60;1.20;;;16.00;70.60;;;;;;4792940;29;20079;-76
2022/10/11 12:46:58;;;;;;;11.02;1.58;;;16.00;70.60;;;;;;4808225;29;20506;-78
2022/10/11 12:49:34;;;;;;;10.88;1.35;;;16.00;70.50;;;;;;4792805;29;20058;-77
2022/10/11 12:52:14;;;;;;;10.05;1.40;;;16.00;70.40;;;;;;4792676;29;20379;-75
2022/10/11 12:54:55;;;;;;;11.82;1.90;;;16.00;71.00;;;;;;4796134;29;20121;-79
2022/10/11 12:57:40;;;;;;;14.10;1.85;;;16.10;70.40;;;;;;4829962;29;20052;-79
2022/10/11 13:00:14;;;;;;;15.73;1.60;;;16.10;70.30;;;;;;4835746;29;20066;-78
2022/10/11 13:02:41;;;;;;;8.70;1.05;;;16.00;70.40;;;;;;4826704;29;20408;-78
2022/10/11 13:05:22;;;;;;;8.73;1.10;;;16.00;70.80;;;;;;4826054;29;20398;-77
2022/10/11 13:07:50;;;;;;;7.32;1.30;;;16.00;70.90;;;;;;4826716;29;20159;-77
2022/10/11 13:10:21;;;;;;;9.43;1.40;;;16.00;70.90;;;;;;4825978;29;20061;-79
2022/10/11 13:12:48;;;;;;;12.43;1.58;;;16.10;71.00;;;;;;4810695;29;20048;-79
2022/10/11 13:15:18;;;;;;;10.57;1.60;;;16.10;70.80;;;;;;4810610;29;20131;-78
2022/10/11 13:17:43;;;;;;;8.00;1.38;;;16.10;71.40;;;;;;4822657;29;20459;-79
2022/10/11 13:20:19;;;;;;;10.70;1.58;;;16.10;70.80;;;;;;4792566;29;20080;-78
2022/10/11 13:22:51;;;;;;;9.50;1.95;;;16.10;70.70;;;;;;4808442;29;20054;-77
2022/10/11 13:25:21;;;;;;;7.40;1.35;;;16.10;70.80;;;;;;4808267;29;20093;-78
2022/10/11 13:27:48;;;;;;;8.45;1.42;;;16.10;70.60;;;;;;4810585;29;20062;-76
2022/10/11 13:30:23;;;;;;;14.48;1.52;;;16.10;70.50;;;;;;4826337;29;20089;-79
2022/10/11 13:32:49;;;;;;;11.77;1.38;;;16.20;70.10;;;;;;4826663;29;20098;-78
2022/10/11 13:35:23;;;;;;;7.90;1.38;;;16.20;70.10;;;;;;4810324;29;20060;-76
2022/10/11 13:37:49;;;;;;;7.05;1.73;;;16.20;70.20;;;;;;4826341;29;20058;-76
2022/10/11 13:40:18;;;;;;;9.13;1.08;;;16.20;70.20;;;;;;4826793;29;20130;-76
2022/10/11 13:42:47;;;;;;;14.95;2.20;;;16.20;70.10;;;;;;4816566;29;20496;-77
2022/10/11 13:45:15;;;;;;;12.35;1.90;;;16.20;70.10;;;;;;4808040;29;20058;-76
2022/10/11 13:47:41;;;;;;;11.43;1.13;;;16.20;70.00;;;;;;4808132;29;20118;-78
2022/10/11 13:50:22;;;;;;;15.80;2.55;;;16.30;70.00;;;;;;4815212;29;20545;-78
2022/10/11 13:53:00;;;;;;;9.80;1.33;;;16.30;69.90;;;;;;4825786;29;20065;-80
2022/10/11 13:55:50;;;;;;;10.27;1.13;;;16.30;70.00;;;;;;4810933;29;20130;-80
2022/10/11 13:58:26;;;;;;;12.63;1.80;;;16.30;69.70;;;;;;4824711;29;20450;-80
2022/10/11 14:00:58;;;;;;;10.35;1.48;;;16.30;69.80;;;;;;4826335;29;20065;-80
2022/10/11 14:03:42;;;;;;;11.90;1.90;;;16.30;69.90;;;;;;4795068;29;20082;-81
2022/10/11 14:06:08;;;;;;;16.30;1.92;;;16.30;69.80;;;;;;4791992;29;20429;-79
2022/10/11 14:08:48;;;;;;;10.77;1.70;;;16.40;70.00;;;;;;4776792;29;20093;-80
2022/10/11 14:11:15;;;;;;;9.95;1.10;;;16.30;69.90;;;;;;4776833;29;20539;-81
2022/10/11 14:13:43;;;;;;;15.55;2.33;;;16.40;69.70;;;;;;4806362;29;20051;-81
2022/10/11 14:16:10;;;;;;;13.45;2.08;;;16.40;69.40;;;;;;4790944;29;20463;-78
2022/10/11 14:18:44;;;;;;;13.43;2.10;;;16.40;69.80;;;;;;4797963;29;20050;-81
2022/10/11 14:21:19;;;;;;;12.52;1.45;;;16.40;70.00;;;;;;4809405;29;20161;-80
2022/10/11 14:23:46;;;;;;;13.10;1.17;;;16.40;69.70;;;;;;4826004;29;20098;-79
2022/10/11 14:26:15;;;;;;;11.77;1.33;;;16.40;69.50;;;;;;4809824;29;20086;-78
2022/10/11 14:28:42;;;;;;;7.85;1.02;;;16.40;68.80;;;;;;4809782;29;20443;-79
2022/10/11 14:31:09;;;;;;;10.05;1.33;;;16.40;68.40;;;;;;4809897;29;20441;-80
2022/10/11 14:33:35;;;;;;;9.80;1.90;;;16.50;68.30;;;;;;4794867;29;20054;-79
2022/10/11 14:36:01;;;;;;;6.38;1.33;;;16.50;68.20;;;;;;4824628;29;20069;-78
2022/10/11 14:38:27;;;;;;;11.23;1.60;;;16.50;67.10;;;;;;4807534;29;20050;-78
2022/10/11 14:40:53;;;;;;;9.55;1.30;;;16.50;66.70;;;;;;4807524;29;20058;-79
2022/10/11 14:43:19;;;;;;;12.52;2.15;;;16.50;66.50;;;;;;4791253;29;20065;-77
2022/10/11 14:45:45;;;;;;;14.52;1.70;;;16.50;66.50;;;;;;4807287;29;20054;-77
2022/10/11 14:48:11;;;;;;;14.52;2.03;;;16.50;66.60;;;;;;4791921;29;20177;-79
2022/10/11 14:50:51;;;;;;;10.25;1.17;;;16.50;67.40;;;;;;4791629;29;20055;-79
2022/10/11 14:53:17;;;;;;;8.02;0.88;;;16.50;67.80;;;;;;4791517;29;20062;-79
2022/10/11 14:55:43;;;;;;;8.43;1.40;;;16.40;67.90;;;;;;4791586;29;20051;-80
2022/10/11 14:58:13;;;;;;;18.25;2.70;;;16.50;67.90;;;;;;4819648;29;20054;-78
2022/10/11 15:00:39;;;;;;;11.25;1.63;;;16.50;67.90;;;;;;4809918;29;20054;-79
2022/10/11 15:03:07;;;;;;;10.70;2.13;;;16.50;67.90;;;;;;4809423;29;20351;-79
2022/10/11 15:05:34;;;;;;;14.68;2.33;;;16.50;67.90;;;;;;4809624;29;20066;-79
2022/10/11 15:08:01;;;;;;;11.45;1.35;;;16.50;67.80;;;;;;4809456;29;20087;-78
2022/10/11 15:10:39;;;;;;;12.15;1.00;;;16.50;68.00;;;;;;4825388;29;20099;-78
2022/10/11 15:13:06;;;;;;;11.13;1.73;;;16.50;68.00;;;;;;4825510;29;20099;-78
2022/10/11 15:15:35;;;;;;;10.35;1.88;;;16.50;67.90;;;;;;4827959;29;20058;-78
2022/10/11 15:18:03;;;;;;;11.55;1.55;;;16.50;68.00;;;;;;4828868;29;20228;-77
2022/10/11 15:20:50;;;;;;;14.98;1.33;;;16.50;67.70;;;;;;4817443;29;20069;-79
2022/10/11 15:23:16;;;;;;;9.48;1.40;;;16.50;67.30;;;;;;4810566;29;20452;-81
2022/10/11 15:25:42;;;;;;;7.80;1.75;;;16.50;67.60;;;;;;4779225;29;20050;-76
2022/10/11 15:28:30;;;;;;;10.85;1.05;;;16.50;67.60;;;;;;4808923;29;20042;-80
2022/10/11 15:30:56;;;;;;;9.00;1.10;;;16.50;68.00;;;;;;4810490;29;20046;-80
2022/10/11 15:33:22;;;;;;;6.30;1.33;;;16.50;68.20;;;;;;4810193;29;20470;-77
2022/10/11 15:35:49;;;;;;;10.70;1.30;;;16.50;68.70;;;;;;4809806;29;20055;-77
2022/10/11 15:38:18;;;;;;;10.20;1.92;;;16.50;68.80;;;;;;4808658;29;20130;-79
2022/10/11 15:40:50;;;;;;;9.20;1.70;;;16.50;68.80;;;;;;4809183;29;20113;-78
2022/10/11 15:43:17;;;;;;;8.93;1.88;;;16.50;68.40;;;;;;4778752;29;20058;-79
2022/10/11 15:45:43;;;;;;;10.35;2.00;;;16.50;67.70;;;;;;4825614;29;20050;-78
2022/10/11 15:48:14;;;;;;;10.30;1.60;;;16.50;67.30;;;;;;4827965;29;20358;-77
2022/10/11 15:50:40;;;;;;;10.52;1.63;;;16.50;66.70;;;;;;4827690;29;20454;-76
2022/10/11 15:53:08;;;;;;;12.75;1.60;;;16.50;66.90;;;;;;4812445;29;20114;-83
2022/10/11 15:55:38;;;;;;;14.38;1.98;;;16.50;66.70;;;;;;4828160;29;20050;-79
2022/10/11 15:58:21;;;;;;;17.90;1.88;;;16.60;66.70;;;;;;4810125;29;20166;-83
2022/10/11 16:00:49;;;;;;;18.90;2.25;;;16.60;67.30;;;;;;4811763;29;20115;-83
2022/10/11 16:03:16;;;;;;;20.85;2.60;;;16.60;67.90;;;;;;4810966;29;20042;-83
2022/10/11 16:05:42;;;;;;;18.02;2.25;;;16.50;68.50;;;;;;4827960;29;20446;-81
2022/10/11 16:08:09;;;;;;;19.88;3.10;;;16.50;69.00;;;;;;4811897;29;20050;-82
2022/10/11 16:10:35;;;;;;;19.55;3.35;;;16.50;69.30;;;;;;4811686;29;20042;-82
2022/10/11 16:13:02;;;;;;;22.80;3.38;;;16.60;69.70;;;;;;4796762;29;20054;-80
2022/10/11 16:15:27;;;;;;;24.95;2.97;;;16.60;69.90;;;;;;4811744;29;20054;-81
2022/10/11 16:17:53;;;;;;;19.45;2.50;;;16.60;70.20;;;;;;4796485;29;20050;-83
2022/10/11 16:20:24;;;;;;;18.05;2.75;;;16.60;70.30;;;;;;4796324;29;20474;-82
2022/10/11 16:22:52;;;;;;;17.05;2.63;;;16.60;70.50;;;;;;4811328;29;20459;-81
2022/10/11 16:25:19;;;;;;;31.30;3.30;;;16.60;70.60;;;;;;4795830;29;20474;-83
2022/10/11 16:27:45;;;;;;;20.90;2.90;;;16.60;70.80;;;;;;4795252;29;20046;-83
2022/10/11 16:30:12;;;;;;;22.27;2.70;;;16.60;70.90;;;;;;4795818;29;20059;-82
2022/10/11 16:32:39;;;;;;;23.88;2.90;;;16.60;71.00;;;;;;4809899;29;20038;-83
2022/10/11 16:35:06;;;;;;;21.85;3.45;;;16.60;71.70;;;;;;4795167;29;20351;-80
2022/10/11 16:37:33;;;;;;;22.75;2.25;;;16.60;71.20;;;;;;4796316;29;20545;-82
2022/10/11 16:39:59;;;;;;;28.77;3.28;;;16.60;71.30;;;;;;4795820;29;20133;-82
2022/10/11 16:42:25;;;;;;;23.75;3.17;;;16.60;71.40;;;;;;4795851;29;20068;-83
2022/10/11 16:44:51;;;;;;;22.20;3.35;;;16.60;71.50;;;;;;4810874;29;20050;-81
2022/10/11 16:47:17;;;;;;;8.52;1.40;;;16.60;71.60;;;;;;4795914;29;20042;-80
2022/10/11 17:45:08;;;;;;;10.48;1.17;;;16.50;69.30;;;;;;5541435;24;20485;-77
2022/10/11 17:47:34;;;;;;;8.43;1.50;;;16.50;69.30;;;;;;4822900;29;20521;-77
2022/10/11 17:50:00;;;;;;;9.52;1.38;;;16.50;69.30;;;;;;4810092;29;20191;-77
2022/10/11 17:52:25;;;;;;;8.88;3.20;;;16.60;69.10;;;;;;4826298;29;20148;-78
2022/10/11 17:54:51;;;;;;;7.93;1.98;;;16.60;66.50;;;;;;4810236;29;20477;-77
2022/10/11 17:57:17;;;;;;;10.90;1.75;;;16.50;65.20;;;;;;4825180;29;20061;-78
2022/10/11 17:59:42;;;;;;;7.75;2.42;;;16.30;64.80;;;;;;4810108;29;20428;-79
2022/10/11 18:02:09;;;;;;;6.38;1.63;;;16.10;65.10;;;;;;4809560;29;20141;-79
2022/10/11 18:04:36;;;;;;;6.90;1.65;;;15.90;65.50;;;;;;4826025;29;20046;-78
2022/10/11 18:07:02;;;;;;;8.80;1.75;;;15.70;65.70;;;;;;4809833;29;20054;-79
2022/10/11 18:09:28;;;;;;;9.90;1.75;;;15.60;66.00;;;;;;4810592;29;20066;-78
2022/10/11 18:11:53;;;;;;;7.90;1.50;;;15.50;66.50;;;;;;4810880;29;20457;-77
2022/10/11 18:14:20;;;;;;;9.07;1.13;;;15.40;67.30;;;;;;4825404;29;20046;-79
2022/10/11 18:16:45;;;;;;;8.65;1.80;;;15.40;67.70;;;;;;4825885;29;20470;-80
2022/10/11 18:19:12;;;;;;;7.22;1.50;;;15.40;68.00;;;;;;4818109;29;20108;-82
2022/10/11 18:21:38;;;;;;;7.53;1.77;;;15.50;68.50;;;;;;4806713;29;20130;-79
2022/10/11 18:24:16;;;;;;;4.63;1.63;;;15.60;68.80;;;;;;4807132;29;20047;-82
2022/10/11 18:26:45;;;;;;;4.70;1.88;;;15.70;69.20;;;;;;4807491;29;20474;-83